Time;durP1;ratioP1;P1;durP2;ratioP2;P2;SDS_P1;SDS_P2;PMS_P1;PMS_P2;Temp;Humidity;BMP_temperature;BMP_pressure;BME280_temperature;BME280_humidity;BME280_pressure;Samples;Min_cycle;Max_cycle;Signal;HPM_P1;HPM_P2
2021/07/18 00:01:07;;;;;;;20.88;16.82;;;;;;;21.72;74.24;100176.73;2102422;84;29861;-68
2021/07/18 00:04:10;;;;;;;19.02;15.68;;;;;;;21.70;74.36;100179.59;2102509;83;31182;-70
2021/07/18 00:07:13;;;;;;;18.70;15.28;;;;;;;21.72;74.49;100181.30;2102708;84;32969;-67
2021/07/18 00:10:17;;;;;;;18.20;14.70;;;;;;;21.69;74.51;100177.87;2102643;84;31580;-70
2021/07/18 00:13:21;;;;;;;16.02;13.95;;;;;;;21.68;74.62;100182.97;2103047;83;27689;-70
2021/07/18 00:16:23;;;;;;;20.90;15.03;;;;;;;21.69;74.61;100181.12;2102933;84;29359;-66
2021/07/18 00:19:25;;;;;;;19.37;15.60;;;;;;;21.68;74.73;100174.78;2104515;83;32328;-83
2021/07/18 00:22:28;;;;;;;32.23;25.88;;;;;;;21.67;74.69;100174.95;2102934;83;33095;-69
2021/07/18 00:25:37;;;;;;;20.15;16.37;;;;;;;21.66;74.72;100173.23;2102249;83;29374;-69
2021/07/18 00:28:36;;;;;;;19.60;15.23;;;;;;;21.63;74.80;100159.41;2100918;84;27757;-67
2021/07/18 00:31:38;;;;;;;21.90;15.28;;;;;;;21.62;74.85;100165.87;2118517;82;28901;-69
2021/07/18 00:34:41;;;;;;;17.75;13.68;;;;;;;21.62;75.03;100165.00;2119767;84;32271;-69
2021/07/18 00:37:43;;;;;;;16.85;14.90;;;;;;;21.59;75.13;100166.14;2119730;84;34195;-70
2021/07/18 00:40:46;;;;;;;19.15;14.83;;;;;;;21.59;75.10;100167.50;2065708;86;29337;-69
2021/07/18 00:43:50;;;;;;;18.67;15.40;;;;;;;21.57;75.12;100173.60;2121082;82;27635;-70
2021/07/18 00:46:53;;;;;;;21.70;14.63;;;;;;;21.57;75.22;100167.31;2156668;82;28655;-70
2021/07/18 00:49:55;;;;;;;22.17;14.90;;;;;;;21.57;75.22;100163.22;2157054;82;31106;-71
2021/07/18 00:52:58;;;;;;;18.82;14.50;;;;;;;21.57;75.32;100169.52;2156405;82;33021;-70
2021/07/18 00:56:00;;;;;;;21.20;14.38;;;;;;;21.56;75.32;100160.98;2156186;82;28789;-69
2021/07/18 00:59:03;;;;;;;20.95;15.23;;;;;;;21.57;75.36;100164.58;2156297;82;27748;-70
2021/07/18 01:02:06;;;;;;;19.10;13.93;;;;;;;21.54;75.32;100161.14;2156432;82;29543;-71
2021/07/18 01:05:11;;;;;;;16.32;14.55;;;;;;;21.52;75.37;100161.80;2156748;82;31833;-71
2021/07/18 01:08:15;;;;;;;20.50;14.33;;;;;;;21.52;75.58;100159.56;2156673;82;33899;-70
2021/07/18 01:11:18;;;;;;;18.15;13.93;;;;;;;21.52;75.53;100159.56;2157063;82;29354;-70
2021/07/18 01:14:21;;;;;;;16.05;12.33;;;;;;;21.51;75.52;100160.08;2152895;82;27716;-70
2021/07/18 01:17:23;;;;;;;17.92;14.65;;;;;;;21.52;75.56;100154.11;2136369;83;28782;-72
2021/07/18 01:20:25;;;;;;;18.85;13.90;;;;;;;21.51;75.49;100162.80;2137457;82;32266;-72
2021/07/18 01:23:28;;;;;;;18.98;12.95;;;;;;;21.49;75.69;100168.91;2136402;83;34175;-71
2021/07/18 01:26:32;;;;;;;19.80;13.80;;;;;;;21.48;75.61;100168.55;2136784;82;30143;-71
2021/07/18 01:29:35;;;;;;;22.20;13.68;;;;;;;21.46;75.62;100176.02;2137748;82;27753;-71
2021/07/18 01:32:38;;;;;;;19.87;13.78;;;;;;;21.45;75.74;100174.81;2052731;86;29508;-69
2021/07/18 01:35:39;;;;;;;21.50;14.55;;;;;;;21.45;75.76;100170.73;2086938;85;31045;-70
2021/07/18 01:38:41;;;;;;;24.85;14.98;;;;;;;21.43;75.79;100176.31;2052304;86;33124;-69
2021/07/18 01:41:44;;;;;;;18.23;13.72;;;;;;;21.43;75.85;100180.92;2087083;85;29989;-71
2021/07/18 01:44:46;;;;;;;20.15;14.98;;;;;;;21.44;75.90;100188.09;2053570;86;27613;-70
2021/07/18 01:47:48;;;;;;;24.07;13.90;;;;;;;21.44;75.93;100188.09;2084288;85;29058;-70
2021/07/18 01:50:51;;;;;;;17.65;13.05;;;;;;;21.46;75.94;100196.45;2047538;87;31419;-72
2021/07/18 01:53:55;;;;;;;22.37;14.63;;;;;;;21.49;76.00;100198.05;2080694;85;35053;-71
2021/07/18 01:56:56;;;;;;;19.33;15.17;;;;;;;21.50;75.87;100191.07;2047714;87;29362;-71
2021/07/18 01:59:58;;;;;;;18.90;13.80;;;;;;;21.53;75.88;100193.98;2080902;85;27833;-71
2021/07/18 02:03:01;;;;;;;19.55;14.05;;;;;;;21.53;75.88;100189.41;2047060;87;30072;-72
2021/07/18 02:06:04;;;;;;;19.35;14.18;;;;;;;21.54;75.96;100193.86;2081156;85;31068;-73
2021/07/18 02:09:07;;;;;;;17.75;14.10;;;;;;;21.54;75.85;100199.80;2047040;87;33870;-71
2021/07/18 02:12:10;;;;;;;15.93;13.93;;;;;;;21.54;75.80;100206.61;2080983;85;30117;-72
2021/07/18 02:15:16;;;;;;;15.18;13.58;;;;;;;21.56;75.84;100210.05;2051584;86;27929;-71
2021/07/18 02:18:19;;;;;;;18.10;12.53;;;;;;;21.57;75.79;100208.20;2084908;85;28642;-73
2021/07/18 02:21:22;;;;;;;17.00;14.38;;;;;;;21.57;75.80;100207.68;2052472;86;31755;-72
2021/07/18 02:24:25;;;;;;;16.77;13.45;;;;;;;21.58;75.77;100208.55;2086648;85;33061;-73
2021/07/18 02:27:28;;;;;;;20.10;13.15;;;;;;;21.56;75.74;100204.59;2052403;86;30210;-72
2021/07/18 02:30:32;;;;;;;15.00;12.53;;;;;;;21.56;75.69;100212.78;2087083;85;28085;-68
2021/07/18 02:33:34;;;;;;;20.35;12.70;;;;;;;21.56;75.67;100212.78;2087375;84;28783;-73
2021/07/18 02:36:37;;;;;;;16.80;13.15;;;;;;;21.59;75.64;100216.57;2087256;85;31090;-73
2021/07/18 02:39:39;;;;;;;18.45;12.37;;;;;;;21.60;75.60;100219.69;2087235;85;33841;-73
2021/07/18 02:42:42;;;;;;;18.87;13.68;;;;;;;21.62;75.54;100219.52;2087274;85;29443;-72
2021/07/18 02:45:44;;;;;;;19.87;13.05;;;;;;;21.61;75.47;100230.07;2081886;85;28300;-71
2021/07/18 02:48:46;;;;;;;22.65;13.45;;;;;;;21.58;75.40;100233.09;2090593;85;30062;-72
2021/07/18 02:51:48;;;;;;;15.15;12.65;;;;;;;21.53;75.41;100226.70;2060737;86;31080;-72
2021/07/18 02:54:50;;;;;;;17.70;12.18;;;;;;;21.54;75.38;100229.78;2062388;85;34209;-72
2021/07/18 02:57:53;;;;;;;18.27;11.55;;;;;;;21.55;75.37;100231.02;2157129;82;29366;-71
2021/07/18 03:00:55;;;;;;;13.40;11.73;;;;;;;21.58;75.31;100223.55;2156625;82;27982;-72
2021/07/18 03:03:56;;;;;;;21.85;12.18;;;;;;;;;;2147258;82;29051;-73
2021/07/18 03:06:59;;;;;;;15.70;12.30;;;;;;;21.62;75.16;100224.48;2136726;82;31206;-71
2021/07/18 03:10:01;;;;;;;16.02;12.03;;;;;;;21.61;75.09;100228.70;2136402;82;33881;-74
2021/07/18 03:13:03;;;;;;;21.55;11.93;;;;;;;21.61;75.18;100232.80;2136309;83;30432;-73
2021/07/18 03:16:06;;;;;;;12.78;11.20;;;;;;;;;;2136769;82;27747;-73
2021/07/18 03:19:07;;;;;;;16.10;10.70;;;;;;;;;;2137917;82;29343;-71
2021/07/18 03:22:09;;;;;;;14.43;11.35;;;;;;;21.66;75.09;100239.55;2137129;83;31409;-66
2021/07/18 03:25:13;;;;;;;15.45;11.18;;;;;;;21.72;74.98;100237.20;2136725;83;34104;-60
2021/07/18 03:28:15;;;;;;;16.37;11.55;;;;;;;21.78;74.92;100238.82;2136703;82;30113;-67
2021/07/18 03:31:17;;;;;;;13.88;11.57;;;;;;;21.83;74.76;100238.39;2141120;82;27689;-72
2021/07/18 03:34:19;;;;;;;16.62;11.30;;;;;;;21.87;74.78;100238.42;2052752;85;29113;-67
2021/07/18 03:37:21;;;;;;;15.30;12.70;;;;;;;21.93;74.74;100246.00;2086969;85;31953;-73
2021/07/18 03:40:24;;;;;;;14.47;11.45;;;;;;;21.97;74.49;100251.52;2052245;86;34226;-69
2021/07/18 03:43:26;;;;;;;16.10;11.78;;;;;;;22.00;74.42;100252.59;2051773;86;31050;-72
2021/07/18 03:46:28;;;;;;;19.48;12.50;;;;;;;22.02;74.27;100253.78;2051478;86;27708;-72
2021/07/18 03:49:30;;;;;;;16.10;12.55;;;;;;;22.01;74.13;100252.91;2051606;86;29866;-72
2021/07/18 03:52:32;;;;;;;15.15;12.50;;;;;;;21.98;74.08;100255.09;2072586;85;31064;-72
2021/07/18 03:55:34;;;;;;;20.15;13.30;;;;;;;21.94;74.07;100262.73;2111111;84;33829;-73
2021/07/18 03:58:36;;;;;;;18.07;13.10;;;;;;;21.91;74.06;100263.55;2149732;82;29724;-72
2021/07/18 04:01:38;;;;;;;17.60;12.70;;;;;;;21.91;74.15;100256.72;2149117;82;28176;-72
2021/07/18 04:04:40;;;;;;;13.60;12.18;;;;;;;21.91;74.13;100253.48;2149488;82;29928;-71
2021/07/18 04:07:42;;;;;;;19.82;13.35;;;;;;;21.92;74.12;100252.47;2148107;82;32366;-72
2021/07/18 04:10:44;;;;;;;19.25;14.23;;;;;;;22.02;74.07;100248.33;2141411;82;34210;-71
2021/07/18 04:13:46;;;;;;;22.15;15.23;;;;;;;22.09;73.98;100249.94;2052133;86;30264;-72
2021/07/18 04:16:48;;;;;;;17.73;14.65;;;;;;;22.14;73.85;100253.08;2087104;85;27620;-69
2021/07/18 04:19:51;;;;;;;19.07;15.48;;;;;;;22.22;73.70;100242.23;2069707;86;29196;-72
2021/07/18 04:22:52;;;;;;;17.95;14.05;;;;;;;22.26;73.32;100253.70;2047565;87;31437;-72
2021/07/18 04:25:54;;;;;;;19.45;13.15;;;;;;;22.34;73.52;100254.32;2047539;86;33590;-72
2021/07/18 04:28:56;;;;;;;18.80;14.73;;;;;;;22.44;73.28;100255.13;2056007;85;29349;-72
2021/07/18 04:31:57;;;;;;;19.32;14.00;;;;;;;22.52;73.16;100252.47;2074934;85;27815;-73
2021/07/18 04:34:59;;;;;;;15.55;13.93;;;;;;;22.58;73.00;100253.75;2079061;85;29094;-73
2021/07/18 04:38:03;;;;;;;21.75;15.15;;;;;;;22.58;72.83;100252.38;2081249;85;31512;-73
2021/07/18 04:41:05;;;;;;;18.92;14.00;;;;;;;22.59;72.71;100254.06;2082407;85;33006;-72
2021/07/18 04:44:07;;;;;;;22.20;15.20;;;;;;;22.59;72.54;100260.89;2078722;85;30387;-73
2021/07/18 04:47:09;;;;;;;19.17;13.70;;;;;;;22.62;72.63;100264.69;2077667;85;27775;-67
2021/07/18 04:50:13;;;;;;;15.72;14.15;;;;;;;22.71;72.65;100265.13;2077290;85;29923;-72
2021/07/18 04:53:15;;;;;;;21.75;14.58;;;;;;;22.80;72.27;100261.09;2077531;85;31034;-72
2021/07/18 04:56:17;;;;;;;19.95;14.58;;;;;;;22.84;72.19;100255.15;2079845;85;34230;-73
2021/07/18 04:59:19;;;;;;;17.73;15.10;;;;;;;22.90;71.80;100259.16;2083401;84;29722;-71
2021/07/18 05:02:21;;;;;;;18.73;14.47;;;;;;;22.94;71.68;100253.70;2086959;84;27932;-70
2021/07/18 05:05:23;;;;;;;18.92;14.73;;;;;;;23.01;71.65;100253.92;2077607;84;29948;-70
2021/07/18 05:08:25;;;;;;;16.45;14.58;;;;;;;23.21;71.43;100254.64;2076382;85;31470;-71
2021/07/18 05:11:27;;;;;;;19.15;14.35;;;;;;;23.44;71.22;100254.95;2076524;85;34401;-69
2021/07/18 05:14:29;;;;;;;21.57;13.20;;;;;;;23.69;70.87;100264.65;2064558;85;29755;-71
2021/07/18 05:17:32;;;;;;;21.52;13.45;;;;;;;23.95;70.65;100271.44;2041669;86;27757;-72
2021/07/18 05:20:34;;;;;;;16.45;14.55;;;;;;;24.21;70.25;100268.32;2041594;87;29543;-71
2021/07/18 05:23:36;;;;;;;18.02;12.43;;;;;;;24.36;69.32;100272.65;2043294;85;31205;-72
2021/07/18 05:26:38;;;;;;;21.02;13.08;;;;;;;24.33;69.14;100280.66;2076387;85;34235;-65
2021/07/18 05:29:40;;;;;;;17.35;13.85;;;;;;;24.27;68.97;100279.45;2076366;85;29418;-70
2021/07/18 05:32:42;;;;;;;19.40;13.62;;;;;;;24.20;68.89;100283.03;2080007;85;27719;-67
2021/07/18 05:35:45;;;;;;;23.40;13.72;;;;;;;24.16;68.74;100278.41;2055491;85;30065;-62
2021/07/18 05:38:47;;;;;;;19.17;15.10;;;;;;;24.07;68.64;100281.63;2043840;87;32197;-69
2021/07/18 05:41:49;;;;;;;17.87;14.87;;;;;;;24.05;68.64;100283.66;2043787;87;33957;-63
2021/07/18 05:44:51;;;;;;;18.37;12.98;;;;;;;24.17;68.69;100291.56;2044190;87;29887;-64
2021/07/18 05:47:53;;;;;;;15.35;13.60;;;;;;;24.22;68.35;100294.17;2055523;86;27787;-61
2021/07/18 05:50:55;;;;;;;21.00;14.07;;;;;;;24.18;67.96;100295.52;2060554;85;29828;-73
2021/07/18 05:53:57;;;;;;;21.07;16.40;;;;;;;24.11;67.79;100296.70;2071221;86;31937;-72
2021/07/18 05:57:00;;;;;;;19.37;15.20;;;;;;;24.05;67.67;100304.71;2071347;85;47418;-72
2021/07/18 06:00:07;;;;;;;19.15;15.18;;;;;;;23.96;67.60;100307.40;2071228;86;30193;-72
2021/07/18 06:03:09;;;;;;;19.50;15.05;;;;;;;23.87;67.64;100305.63;2071034;85;27692;-72
2021/07/18 06:06:11;;;;;;;16.40;14.03;;;;;;;23.79;67.61;100306.94;2078122;85;28755;-68
2021/07/18 06:09:12;;;;;;;15.85;14.18;;;;;;;23.74;67.59;100305.22;2079609;85;32257;-73
2021/07/18 06:12:15;;;;;;;19.05;15.53;;;;;;;23.67;67.58;100318.16;2078745;85;34360;-72
2021/07/18 06:15:16;;;;;;;16.93;15.08;;;;;;;23.59;67.61;100317.25;2071201;86;30565;-72
2021/07/18 06:18:19;;;;;;;18.73;14.93;;;;;;;23.61;67.92;100320.69;2071340;86;27611;-72
2021/07/18 06:21:21;;;;;;;16.70;14.23;;;;;;;23.63;67.77;100320.86;2071290;86;29952;-72
2021/07/18 06:24:23;;;;;;;15.03;13.48;;;;;;;23.64;67.81;100317.11;2079261;85;31434;-69
2021/07/18 06:27:25;;;;;;;17.23;14.47;;;;;;;23.75;67.74;100318.72;2079650;85;34136;-70
2021/07/18 06:30:27;;;;;;;20.27;14.45;;;;;;;23.90;67.25;100316.25;2079590;85;30516;-69
2021/07/18 06:33:29;;;;;;;15.95;14.30;;;;;;;24.16;66.79;100311.25;2079694;85;27611;-67
2021/07/18 06:36:32;;;;;;;16.07;14.53;;;;;;;24.58;66.87;100317.72;2079660;85;30059;-68
2021/07/18 06:39:34;;;;;;;15.10;13.60;;;;;;;25.01;66.14;100310.26;2079629;85;31919;-63
2021/07/18 06:42:36;;;;;;;15.18;12.73;;;;;;;25.51;66.02;100315.75;2079947;85;33058;-68
2021/07/18 06:45:38;;;;;;;14.50;12.93;;;;;;;26.42;65.15;100320.97;2079801;85;30529;-71
2021/07/18 06:48:41;;;;;;;15.95;12.43;;;;;;;27.33;63.90;100323.62;2080152;85;27743;-62
2021/07/18 06:51:43;;;;;;;15.20;13.60;;;;;;;27.66;62.07;100319.20;2055007;85;29649;-68
2021/07/18 06:54:45;;;;;;;13.48;12.07;;;;;;;27.78;61.56;100320.98;2043760;87;31936;-72
2021/07/18 06:57:49;;;;;;;15.72;12.40;;;;;;;28.09;60.71;100321.30;2043740;87;34315;-70
2021/07/18 07:00:52;;;;;;;13.03;11.65;;;;;;;28.84;60.02;100317.89;2069780;85;29984;-71
2021/07/18 07:03:54;;;;;;;13.08;11.68;;;;;;;29.11;58.26;100322.31;2085515;85;27653;-68
2021/07/18 07:06:56;;;;;;;13.10;11.80;;;;;;;29.06;57.68;100327.02;2079583;85;30791;-66
2021/07/18 07:09:59;;;;;;;15.30;11.57;;;;;;;29.13;57.33;100333.13;2079021;85;31816;-66
2021/07/18 07:13:01;;;;;;;16.32;11.85;;;;;;;29.38;57.12;100332.22;2074368;85;33041;-68
2021/07/18 07:16:04;;;;;;;13.48;11.50;;;;;;;29.67;56.41;100334.45;2055631;86;29327;-72
2021/07/18 07:19:10;;;;;;;15.95;11.93;;;;;;;30.37;55.59;100337.73;2044313;87;28196;-71
2021/07/18 07:22:14;;;;;;;13.20;11.33;;;;;;;30.68;53.26;100335.03;2081602;85;28870;-73
2021/07/18 07:25:17;;;;;;;14.55;12.18;;;;;;;30.76;53.33;100334.82;2089794;85;31894;-71
2021/07/18 07:28:20;;;;;;;12.33;11.22;;;;;;;30.87;53.49;100337.51;2078022;85;33126;-67
2021/07/18 07:31:25;;;;;;;13.98;10.68;;;;;;;30.78;52.71;100339.62;2078166;85;29383;-66
2021/07/18 07:34:28;;;;;;;11.45;10.13;;;;;;;30.63;52.48;100343.09;2081396;85;28243;-67
2021/07/18 07:37:30;;;;;;;12.43;11.22;;;;;;;30.08;51.89;100341.98;2081926;85;28786;-66
2021/07/18 07:40:33;;;;;;;14.63;11.40;;;;;;;29.58;52.09;100348.09;2081627;85;31084;-67
2021/07/18 07:43:40;;;;;;;16.23;11.73;;;;;;;29.07;52.57;100341.14;2081290;85;33109;-69
2021/07/18 07:46:44;;;;;;;15.35;11.75;;;;;;;28.59;52.56;100347.19;2080679;85;29379;-70
2021/07/18 07:49:47;;;;;;;13.95;11.63;;;;;;;28.10;52.96;100344.54;2085049;85;27759;-68
2021/07/18 07:52:49;;;;;;;15.65;11.80;;;;;;;27.66;53.41;100343.98;2079984;85;29512;-65
2021/07/18 07:55:53;;;;;;;12.88;11.68;;;;;;;27.35;54.17;100343.55;2081471;85;31019;-69
2021/07/18 07:58:55;;;;;;;13.53;11.93;;;;;;;27.15;54.61;100335.80;2076130;85;33914;-66
2021/07/18 08:01:58;;;;;;;14.83;12.43;;;;;;;27.29;55.17;100341.03;2078611;85;29338;-66
2021/07/18 08:05:01;;;;;;;13.38;11.95;;;;;;;27.52;55.01;100335.52;2080169;85;27814;-71
2021/07/18 08:08:05;;;;;;;13.07;11.70;;;;;;;27.75;54.98;100337.33;2080048;85;28700;-65
2021/07/18 08:11:09;;;;;;;;;;;;;;;28.08;54.75;100341.63;2051663;85;31745;-68
2021/07/18 08:14:12;;;;;;;13.95;11.38;;;;;;;28.31;54.47;100342.91;2043897;87;33060;-64
2021/07/18 08:17:22;;;;;;;12.28;11.03;;;;;;;28.53;54.53;100339.69;2044019;87;29994;-68
2021/07/18 08:20:53;;;;;;;17.60;11.10;;;;;;;28.73;54.14;100339.94;2063501;85;27920;-68
2021/07/18 08:23:49;;;;;;;14.73;10.98;;;;;;;28.96;53.98;100342.52;2062341;83;27800;-71
2021/07/18 08:26:56;;;;;;;13.15;11.03;;;;;;;29.14;52.89;100335.69;2085833;83;31774;-70
2021/07/18 08:30:01;;;;;;;12.85;11.00;;;;;;;29.20;52.71;100335.45;2078558;83;28937;-69
2021/07/18 08:33:32;;;;;;;12.28;11.08;;;;;;;29.24;52.52;100333.97;2108097;81;29335;-69
2021/07/18 08:36:39;;;;;;;13.90;10.65;;;;;;;29.17;52.51;100338.05;2075370;79;29347;-71
2021/07/18 08:39:43;;;;;;;10.53;9.45;;;;;;;29.16;52.15;100340.48;1985411;88;27746;-72
2021/07/18 08:42:45;;;;;;;8.83;7.92;;;;;;;29.58;51.67;100339.81;2021949;87;31057;-72
2021/07/18 08:45:48;;;;;;;9.78;7.95;;;;;;;29.84;51.41;100340.53;2020628;86;32945;-71
2021/07/18 08:48:50;;;;;;;10.60;8.07;;;;;;;30.08;50.78;100332.31;2031237;87;29187;-67
2021/07/18 08:51:53;;;;;;;8.70;7.72;;;;;;;30.30;50.45;100328.91;2084342;84;27712;-71
2021/07/18 08:54:55;;;;;;;10.00;7.85;;;;;;;30.55;49.27;100335.83;2055596;85;28700;-71
2021/07/18 08:57:57;;;;;;;11.50;7.35;;;;;;;30.41;48.88;100333.50;2057407;84;30973;-71
2021/07/18 09:00:59;;;;;;;9.53;6.90;;;;;;;30.30;49.09;100326.14;2050614;86;33758;-71
2021/07/18 09:04:01;;;;;;;7.70;6.87;;;;;;;30.38;48.81;100332.02;2067649;85;29311;-69
2021/07/18 09:07:09;;;;;;;14.58;6.83;;;;;;;30.30;47.88;100333.56;2076041;85;27632;-69
2021/07/18 09:10:13;;;;;;;9.00;7.30;;;;;;;30.22;47.66;100336.52;2066614;85;29943;-70
2021/07/18 09:13:19;;;;;;;9.83;6.47;;;;;;;30.38;47.63;100329.25;2051570;85;31036;-69
2021/07/18 09:16:31;;;;;;;8.10;6.33;;;;;;;30.67;47.41;100326.41;2014143;88;33170;-71
2021/07/18 09:19:36;;;;;;;10.78;7.70;;;;;;;31.09;47.47;100322.95;2002237;88;29446;-70
2021/07/18 09:22:37;;;;;;;10.13;6.90;;;;;;;31.42;46.45;100322.14;2018803;87;27730;-69
2021/07/18 09:25:39;;;;;;;10.53;6.95;;;;;;;31.68;46.48;100317.11;2050051;86;28635;-69
2021/07/18 09:28:41;;;;;;;19.15;8.20;;;;;;;31.79;46.05;100323.08;2048364;86;31087;-69
2021/07/18 09:31:43;;;;;;;8.30;6.30;;;;;;;32.00;45.46;100325.27;1999647;86;33894;-69
2021/07/18 09:34:58;;;;;;;7.15;6.45;;;;;;;32.09;45.32;100323.44;2008301;87;30667;-69
2021/07/18 09:38:00;;;;;;;7.67;5.10;;;;;;;32.31;45.21;100327.86;2033353;86;27834;-71
2021/07/18 09:41:02;;;;;;;6.42;5.83;;;;;;;32.48;44.39;100324.06;1986386;88;29648;-69
2021/07/18 09:44:04;;;;;;;11.10;5.85;;;;;;;32.57;43.38;100330.53;2023444;86;31038;-69
2021/07/18 09:47:07;;;;;;;7.25;4.87;;;;;;;32.52;42.67;100327.55;2023986;87;32965;-71
2021/07/18 09:50:26;;;;;;;8.95;5.42;;;;;;;32.47;42.93;100327.91;2022269;86;29397;-70
2021/07/18 09:53:28;;;;;;;9.58;5.30;;;;;;;32.29;43.32;100321.16;2022087;88;27703;-75
2021/07/18 09:56:32;;;;;;;5.58;5.03;;;;;;;32.12;43.16;100311.91;2008366;88;29206;-73
2021/07/18 09:59:34;;;;;;;9.03;4.50;;;;;;;31.99;42.91;100314.73;2007786;87;31063;-71
2021/07/18 10:02:41;;;;;;;8.73;5.30;;;;;;;31.82;42.72;100315.73;2008335;88;33108;-72
2021/07/18 10:05:43;;;;;;;10.63;5.37;;;;;;;31.62;43.08;100309.66;2008078;88;30125;-73
2021/07/18 10:08:51;;;;;;;9.13;5.33;;;;;;;31.41;43.11;100316.28;2008003;88;27680;-71
2021/07/18 10:11:54;;;;;;;5.33;4.78;;;;;;;31.22;43.10;100301.40;2007546;87;28709;-72
2021/07/18 10:14:59;;;;;;;7.87;4.70;;;;;;;31.06;43.09;100301.23;2007660;88;31084;-74
2021/07/18 10:18:01;;;;;;;8.50;4.30;;;;;;;30.88;42.92;100301.33;2007763;88;33785;-73
2021/07/18 10:21:06;;;;;;;6.50;4.37;;;;;;;30.62;42.05;100292.45;1990237;87;30244;-73
2021/07/18 10:24:08;;;;;;;6.05;4.00;;;;;;;30.40;42.62;100298.11;2016033;88;27782;-69
2021/07/18 10:27:12;;;;;;;4.75;3.95;;;;;;;30.28;42.15;100299.78;2015992;88;28828;-70
2021/07/18 10:30:16;;;;;;;7.70;4.67;;;;;;;30.10;42.89;100299.80;2019438;86;31082;-69
2021/07/18 10:33:19;;;;;;;6.97;4.28;;;;;;;30.03;43.12;100300.83;1968717;89;33144;-71
2021/07/18 10:36:24;;;;;;;6.47;3.72;;;;;;;29.94;42.37;100295.97;2036696;86;29335;-63
2021/07/18 10:39:35;;;;;;;10.32;4.22;;;;;;;29.71;42.35;100292.97;2023831;86;27757;-62
2021/07/18 10:42:38;;;;;;;5.33;4.15;;;;;;;29.60;43.01;100292.99;2053619;86;28680;-64
2021/07/18 10:45:43;;;;;;;4.83;4.08;;;;;;;29.51;43.54;100292.84;2053473;86;31838;-63
2021/07/18 10:48:52;;;;;;;6.08;4.47;;;;;;;29.47;43.36;100282.70;2055202;86;32944;-64
2021/07/18 10:51:55;;;;;;;7.35;4.75;;;;;;;29.38;42.70;100294.97;2018717;86;29336;-64
2021/07/18 10:54:57;;;;;;;7.42;4.87;;;;;;;29.23;42.62;100290.36;2002234;88;27709;-62
2021/07/18 10:57:59;;;;;;;7.47;4.50;;;;;;;29.18;43.12;100286.50;2014479;86;29237;-64
2021/07/18 11:01:01;;;;;;;7.62;5.28;;;;;;;29.15;42.35;100280.84;2008662;87;31061;-63
2021/07/18 11:04:05;;;;;;;7.47;4.75;;;;;;;29.06;43.39;100283.42;2031843;87;33342;-65
2021/07/18 11:07:30;;;;;;;6.58;4.53;;;;;;;28.98;42.90;100282.17;2082535;85;29317;-64
2021/07/18 11:10:49;;;;;;;8.35;5.05;;;;;;;28.88;42.73;100281.98;2075098;85;27686;-64
2021/07/18 11:14:35;;;;;;;7.62;4.55;;;;;;;28.81;43.33;100293.47;2025230;87;29475;-64
2021/07/18 11:17:59;;;;;;;10.70;4.95;;;;;;;28.92;43.79;100285.20;2017606;87;31169;-63
2021/07/18 11:21:01;;;;;;;10.93;5.00;;;;;;;28.99;42.93;100279.73;1946389;90;33059;-63
2021/07/18 11:24:04;;;;;;;8.15;4.80;;;;;;;28.96;43.27;100278.24;1945704;91;30210;-62
2021/07/18 11:27:24;;;;;;;7.00;5.00;;;;;;;28.86;41.86;100284.63;1946273;89;27775;-63
2021/07/18 11:30:39;;;;;;;6.67;4.78;;;;;;;28.71;42.42;100293.75;1948306;91;29744;-63
2021/07/18 11:34:07;;;;;;;6.78;4.62;;;;;;;28.59;42.56;100282.42;1948346;91;32219;-62
2021/07/18 11:37:10;;;;;;;6.50;4.40;;;;;;;28.56;43.03;100285.56;1945667;91;33104;-65
2021/07/18 11:40:12;;;;;;;7.75;4.70;;;;;;;28.47;43.38;100286.70;1944844;90;29969;-65
2021/07/18 11:43:14;;;;;;;9.38;4.92;;;;;;;28.39;43.06;100283.55;1932007;91;27579;-63
2021/07/18 11:46:17;;;;;;;6.53;4.62;;;;;;;28.32;43.46;100288.14;1928355;92;29908;-63
2021/07/18 11:49:19;;;;;;;6.90;4.55;;;;;;;28.27;43.26;100276.33;1966635;88;31049;-63
2021/07/18 11:52:23;;;;;;;7.53;4.60;;;;;;;28.28;43.25;100271.66;2003397;88;32787;-64
2021/07/18 11:55:26;;;;;;;6.65;5.03;;;;;;;28.28;44.02;100270.28;2017475;88;29350;-64
2021/07/18 11:58:31;;;;;;;8.78;4.95;;;;;;;28.32;43.75;100275.20;1997991;88;27663;-64
2021/07/18 12:01:38;;;;;;;6.78;5.55;;;;;;;28.32;43.94;100256.45;1991547;88;29304;-63
2021/07/18 12:04:41;;;;;;;13.00;6.40;;;;;;;28.37;44.42;100260.87;1998905;87;32077;-64
2021/07/18 12:07:43;;;;;;;15.25;10.38;;;;;;;28.43;44.00;100251.80;1989057;89;33037;-64
2021/07/18 12:10:45;;;;;;;10.95;6.70;;;;;;;28.49;44.24;100247.41;2045016;86;28974;-64
2021/07/18 12:13:49;;;;;;;10.05;6.75;;;;;;;28.46;43.20;100251.96;1991819;88;27747;-67
2021/07/18 12:16:56;;;;;;;10.58;6.58;;;;;;;28.32;43.50;100238.01;2039595;86;29393;-66
2021/07/18 12:19:58;;;;;;;10.03;7.70;;;;;;;28.26;43.84;100237.94;2012436;88;31061;-64
2021/07/18 12:23:12;;;;;;;18.17;8.08;;;;;;;28.22;44.40;100233.34;2013032;88;34157;-62
2021/07/18 12:26:17;;;;;;;9.43;7.90;;;;;;;28.21;44.37;100228.89;2013582;88;29344;-64
2021/07/18 12:29:21;;;;;;;14.95;9.50;;;;;;;28.26;44.27;100229.67;2039777;87;27638;-64
2021/07/18 12:32:30;;;;;;;10.70;8.65;;;;;;;28.27;44.39;100222.61;2006649;87;29770;-64
2021/07/18 12:35:33;;;;;;;11.95;9.30;;;;;;;28.30;44.59;100218.06;1984500;89;31024;-65
2021/07/18 12:38:35;;;;;;;13.55;9.58;;;;;;;28.31;44.00;100220.31;1993704;88;34176;-65
2021/07/18 12:41:38;;;;;;;13.85;9.65;;;;;;;28.31;44.42;100217.55;2039658;87;29364;-63
2021/07/18 12:44:50;;;;;;;13.05;8.95;;;;;;;28.26;44.06;100221.41;2081124;85;27708;-63
2021/07/18 12:48:02;;;;;;;12.47;9.30;;;;;;;28.20;44.25;100218.91;2084673;84;29700;-63
2021/07/18 12:51:17;;;;;;;18.27;10.72;;;;;;;28.13;43.44;100209.73;2053741;86;31017;-64
2021/07/18 12:54:25;;;;;;;14.68;9.65;;;;;;;28.07;44.14;100217.36;2041474;86;34200;-64
2021/07/18 12:57:30;;;;;;;13.18;10.00;;;;;;;28.05;44.17;100224.41;2052292;86;30701;-63
2021/07/18 13:00:32;;;;;;;12.58;8.53;;;;;;;28.00;43.71;100219.49;2053135;86;28331;-62
2021/07/18 13:03:45;;;;;;;14.25;9.13;;;;;;;28.00;43.62;100217.28;2052052;86;29897;-63
2021/07/18 13:06:51;;;;;;;16.00;9.05;;;;;;;27.99;44.27;100212.81;2053354;86;31037;-65
2021/07/18 13:10:10;;;;;;;16.63;8.40;;;;;;;28.00;44.60;100214.52;2015903;87;34046;-64
2021/07/18 13:13:12;;;;;;;12.80;7.83;;;;;;;28.02;44.65;100216.03;2053665;86;29969;-63
2021/07/18 13:16:13;;;;;;;8.75;6.87;;;;;;;28.04;44.26;100217.23;2053748;86;27675;-65
2021/07/18 13:19:17;;;;;;;10.88;7.08;;;;;;;28.03;44.83;100214.14;2055167;85;28788;-65
2021/07/18 13:22:20;;;;;;;12.78;7.05;;;;;;;28.04;44.53;100200.16;2053955;85;31071;-64
2021/07/18 13:25:35;;;;;;;7.45;6.75;;;;;;;28.10;44.50;100199.10;2032293;86;33371;-65
2021/07/18 13:28:37;;;;;;;11.25;6.47;;;;;;;28.13;44.46;100199.56;2066367;85;30136;-65
2021/07/18 13:31:42;;;;;;;11.90;5.62;;;;;;;28.13;44.21;100196.80;2081366;85;27680;-65
2021/07/18 13:35:03;;;;;;;11.28;5.37;;;;;;;28.12;44.76;100190.13;2081155;85;28661;-63
2021/07/18 13:38:05;;;;;;;12.05;6.28;;;;;;;28.19;44.63;100190.53;2081217;84;31753;-63
2021/07/18 13:41:22;;;;;;;8.18;6.20;;;;;;;28.26;44.60;100182.34;2081199;85;33780;-64
2021/07/18 13:44:33;;;;;;;9.20;7.35;;;;;;;28.27;44.47;100184.55;2080879;85;29558;-68
2021/07/18 13:47:38;;;;;;;5.53;5.03;;;;;;;28.27;44.83;100181.80;2080576;85;27795;-62
2021/07/18 13:50:42;;;;;;;7.67;4.58;;;;;;;28.21;44.42;100180.67;2053498;86;29057;-64
2021/07/18 13:53:45;;;;;;;10.32;4.75;;;;;;;28.15;44.07;100175.44;2053773;86;31908;-64
2021/07/18 13:56:47;;;;;;;7.42;4.85;;;;;;;28.13;43.84;100179.44;2053555;86;33971;-63
2021/07/18 13:59:49;;;;;;;9.03;4.45;;;;;;;28.13;44.52;100169.26;2018879;86;30463;-63
2021/07/18 14:02:51;;;;;;;9.33;3.90;;;;;;;28.14;44.56;100174.23;2053409;86;27764;-63
2021/07/18 14:05:53;;;;;;;8.55;4.70;;;;;;;28.16;44.59;100174.38;2053565;86;29066;-63